createdAt,value
2019-03-02T00:02:00.942Z,3.13
2019-03-02T00:04:30.334Z,3.20
2019-03-02T00:06:59.634Z,2.93
2019-03-02T00:09:31.805Z,2.83
2019-03-02T00:12:00.081Z,2.90
2019-03-02T00:14:29.482Z,2.57
2019-03-02T00:16:58.903Z,3.33
2019-03-02T00:19:28.446Z,3.20
2019-03-02T00:21:57.816Z,3.50
2019-03-02T00:24:27.157Z,3.20
2019-03-02T00:26:56.450Z,3.67
2019-03-02T00:29:25.879Z,3.03
2019-03-02T00:31:55.251Z,3.10
2019-03-02T00:34:25.008Z,3.83
2019-03-02T00:36:54.891Z,3.30
2019-03-02T00:39:25.438Z,2.97
2019-03-02T00:41:55.200Z,3.30
2019-03-02T00:44:24.603Z,3.13
2019-03-02T00:46:56.337Z,3.30
2019-03-02T00:49:25.088Z,3.40
2019-03-02T00:51:54.807Z,3.00
2019-03-02T00:54:24.152Z,2.70
2019-03-02T00:56:53.562Z,2.93
2019-03-02T00:59:22.864Z,2.80
2019-03-02T01:01:52.433Z,2.87
2019-03-02T01:04:22.724Z,3.00
2019-03-02T01:06:52.787Z,3.00
2019-03-02T01:09:22.486Z,3.57
2019-03-02T01:11:51.820Z,3.77
2019-03-02T01:14:21.282Z,3.47
2019-03-02T01:16:51.757Z,3.87
2019-03-02T01:19:21.689Z,3.63
2019-03-02T01:21:51.092Z,4.00
2019-03-02T01:24:20.404Z,3.50
2019-03-02T01:26:50.043Z,3.00
2019-03-02T01:29:20.433Z,2.40
2019-03-02T01:31:50.326Z,2.40
2019-03-02T01:34:19.705Z,2.83
2019-03-02T01:36:49.076Z,2.23
2019-03-02T01:39:18.394Z,2.20
2019-03-02T01:41:51.014Z,2.60
2019-03-02T01:44:18.775Z,2.10
2019-03-02T01:46:48.164Z,2.50
2019-03-02T01:49:17.527Z,2.10
2019-03-02T01:51:46.920Z,2.00
2019-03-02T01:54:17.865Z,2.00
2019-03-02T01:56:47.320Z,1.60
2019-03-02T01:59:17.297Z,2.03
2019-03-02T02:01:46.740Z,1.73
2019-03-02T02:04:18.834Z,1.93
2019-03-02T02:06:47.192Z,1.83
2019-03-02T02:09:17.244Z,1.90
2019-03-02T02:11:49.873Z,2.00
2019-03-02T02:14:18.710Z,1.77
2019-03-02T02:16:48.827Z,2.30
2019-03-02T02:19:18.204Z,1.80
2019-03-02T02:21:47.608Z,1.90
2019-03-02T02:24:16.996Z,1.73
2019-03-02T02:26:46.918Z,1.60
2019-03-02T02:29:17.154Z,1.43
2019-03-02T02:31:46.560Z,2.23
2019-03-02T02:34:22.469Z,1.50
2019-03-02T02:36:46.956Z,1.53
2019-03-02T02:39:17.173Z,1.70
2019-03-02T02:41:46.541Z,2.43
2019-03-02T02:44:15.972Z,1.70
2019-03-02T02:46:45.355Z,1.70
2019-03-02T02:49:14.757Z,2.63
2019-03-02T02:51:49.341Z,1.33
2019-03-02T02:54:22.802Z,1.80
2019-03-02T02:56:47.178Z,2.00
2019-03-02T02:59:16.479Z,1.93
2019-03-02T03:01:46.250Z,1.47
2019-03-02T03:04:15.614Z,1.60
2019-03-02T03:06:45.037Z,1.47
2019-03-02T03:09:50.829Z,1.50
2019-03-02T03:12:22.904Z,1.60
2019-03-02T03:14:54.142Z,1.10
2019-03-02T03:17:22.628Z,1.70
2019-03-02T03:19:51.967Z,1.40
2019-03-02T03:22:21.345Z,1.50
2019-03-02T03:24:50.746Z,1.60
2019-03-02T03:27:20.532Z,1.27
2019-03-02T03:29:51.285Z,1.10
2019-03-02T03:32:20.853Z,1.40
2019-03-02T03:34:50.600Z,1.27
2019-03-02T03:37:20.234Z,1.10
2019-03-02T03:39:49.624Z,1.20
2019-03-02T03:42:23.076Z,1.13
2019-03-02T03:44:50.050Z,1.53
2019-03-02T03:47:19.414Z,3.10
2019-03-02T03:49:51.096Z,1.67
2019-03-02T03:52:20.512Z,1.63
2019-03-02T03:54:49.849Z,1.40
2019-03-02T03:57:21.516Z,0.97
2019-03-02T03:59:53.384Z,1.03
2019-03-02T04:02:22.475Z,1.10
2019-03-02T04:04:51.857Z,1.60
2019-03-02T04:07:21.585Z,1.10
2019-03-02T04:09:51.069Z,1.60
2019-03-02T04:12:24.455Z,1.37
2019-03-02T04:14:51.487Z,1.50
2019-03-02T04:17:20.903Z,1.60
2019-03-02T04:19:52.776Z,1.47
2019-03-02T04:22:22.781Z,1.43
2019-03-02T04:24:52.169Z,1.50
2019-03-02T04:27:22.366Z,1.77
2019-03-02T04:29:55.537Z,1.60
2019-03-02T04:32:27.834Z,1.50
2019-03-02T04:34:57.680Z,1.70
2019-03-02T04:37:27.198Z,1.90
2019-03-02T04:39:57.493Z,1.77
2019-03-02T04:42:27.675Z,1.73
2019-03-02T04:44:57.201Z,2.00
2019-03-02T04:47:27.586Z,1.77
2019-03-02T04:49:58.251Z,1.70
2019-03-02T04:52:27.928Z,1.70
2019-03-02T04:54:57.322Z,1.60
2019-03-02T04:57:26.729Z,1.60
2019-03-02T04:59:56.726Z,1.60
2019-03-02T05:02:26.289Z,1.73
2019-03-02T05:04:55.677Z,2.30
2019-03-02T05:07:26.731Z,2.00
2019-03-02T05:09:56.927Z,2.17
2019-03-02T05:12:26.607Z,1.50
2019-03-02T05:14:56.088Z,1.47
2019-03-02T05:17:26.223Z,1.83
2019-03-02T05:19:55.599Z,1.60
2019-03-02T05:22:25.725Z,1.30
2019-03-02T05:24:55.101Z,1.37
2019-03-02T05:27:24.506Z,1.43
2019-03-02T05:29:54.416Z,1.40
2019-03-02T05:32:23.963Z,1.63
2019-03-02T05:34:53.391Z,1.50
2019-03-02T05:37:22.809Z,1.97
2019-03-02T05:39:52.848Z,1.70
2019-03-02T05:42:25.803Z,1.30
2019-03-02T05:44:56.241Z,1.70
2019-03-02T05:47:25.657Z,1.87
2019-03-02T05:49:55.998Z,1.20
2019-03-02T05:52:25.679Z,1.27
2019-03-02T05:54:55.256Z,1.40
2019-03-02T05:57:24.628Z,1.20
2019-03-02T05:59:53.983Z,1.00
2019-03-02T06:02:23.403Z,1.20
2019-03-02T06:04:53.723Z,1.20
2019-03-02T06:07:23.805Z,1.17
2019-03-02T06:09:53.221Z,1.00
2019-03-02T06:12:22.805Z,1.20
2019-03-02T06:14:52.199Z,1.27
2019-03-02T06:17:21.619Z,1.07
2019-03-02T06:19:51.387Z,0.90
2019-03-02T06:22:21.159Z,1.20
2019-03-02T06:24:51.579Z,0.90
2019-03-02T06:27:20.958Z,1.10
2019-03-02T06:29:53.708Z,1.10
2019-03-02T06:32:25.936Z,1.00
2019-03-02T06:34:55.788Z,1.20
2019-03-02T06:37:30.857Z,1.00
2019-03-02T06:40:00.643Z,0.83
2019-03-02T06:42:30.036Z,1.37
2019-03-02T06:44:59.385Z,1.40
2019-03-02T06:47:29.999Z,1.10
2019-03-02T06:50:00.374Z,1.10
2019-03-02T06:52:29.973Z,1.13
2019-03-02T06:54:59.373Z,1.20
2019-03-02T06:57:28.731Z,1.10
2019-03-02T06:59:58.025Z,1.17
2019-03-02T07:02:27.412Z,1.37
2019-03-02T07:04:58.090Z,1.20
2019-03-02T07:07:27.873Z,1.20
2019-03-02T07:09:57.249Z,1.20
2019-03-02T07:12:26.684Z,1.30
2019-03-02T07:14:56.384Z,1.57
2019-03-02T07:17:43.385Z,1.50
2019-03-02T07:20:23.872Z,1.27
2019-03-02T07:22:53.261Z,1.30
2019-03-02T07:25:22.625Z,1.80
2019-03-02T07:27:51.959Z,1.37
2019-03-02T07:30:21.581Z,1.53
2019-03-02T07:32:50.974Z,1.63
2019-03-02T07:35:20.632Z,2.00
2019-03-02T07:37:50.266Z,1.60
2019-03-02T07:40:19.651Z,1.70
2019-03-02T07:42:49.167Z,1.57
2019-03-02T07:45:19.062Z,1.70
2019-03-02T07:47:49.387Z,1.50
2019-03-02T07:50:21.877Z,1.53
2019-03-02T07:52:53.081Z,1.80
2019-03-02T07:55:24.515Z,1.53
2019-03-02T07:57:53.939Z,1.47
2019-03-02T08:00:23.698Z,1.60
2019-03-02T08:02:53.155Z,1.47
2019-03-02T08:05:22.535Z,1.70
2019-03-02T08:07:51.867Z,1.80
2019-03-02T08:10:21.275Z,1.93
2019-03-02T08:12:50.989Z,2.00
2019-03-02T08:15:24.631Z,1.90
2019-03-02T08:17:52.898Z,2.70
2019-03-02T08:20:24.547Z,2.00
2019-03-02T08:22:53.661Z,2.10
2019-03-02T08:25:23.157Z,1.97
2019-03-02T08:27:52.594Z,2.10
2019-03-02T08:30:21.994Z,2.70
2019-03-02T08:32:53.925Z,2.60
2019-03-02T08:35:22.561Z,2.33
2019-03-02T08:37:51.953Z,2.20
2019-03-02T08:40:23.292Z,2.63
2019-03-02T08:42:52.511Z,2.00
2019-03-02T08:45:22.111Z,2.60
2019-03-02T08:47:51.907Z,2.30
2019-03-02T08:50:21.316Z,2.43
2019-03-02T08:52:50.815Z,2.93
2019-03-02T08:55:20.230Z,2.50
2019-03-02T08:57:49.975Z,2.63
2019-03-02T09:00:20.956Z,2.00
2019-03-02T09:02:50.401Z,2.47
2019-03-02T09:05:23.158Z,2.60
2019-03-02T09:07:50.949Z,2.40
2019-03-02T09:10:21.811Z,2.10
2019-03-02T09:12:51.527Z,2.10
2019-03-02T09:15:25.749Z,1.97
2019-03-02T09:17:54.236Z,2.03
2019-03-02T09:20:24.142Z,2.30
2019-03-02T09:22:56.252Z,1.70
2019-03-02T09:25:27.704Z,1.83
2019-03-02T09:27:56.477Z,1.80
2019-03-02T09:30:25.791Z,1.80
2019-03-02T09:32:56.066Z,1.47
2019-03-02T09:35:25.401Z,1.90
2019-03-02T09:37:55.236Z,1.53
2019-03-02T09:40:25.168Z,1.90
2019-03-02T09:42:54.820Z,1.57
2019-03-02T09:45:24.365Z,1.70
2019-03-02T09:47:53.769Z,1.93
2019-03-02T09:50:23.341Z,1.97
2019-03-02T09:52:53.122Z,1.50
2019-03-02T09:55:22.431Z,2.20
2019-03-02T09:57:51.946Z,3.00
2019-03-02T10:00:23.917Z,2.60
2019-03-02T10:02:54.692Z,2.70
2019-03-02T10:05:26.043Z,3.10
2019-03-02T10:07:55.495Z,3.10
2019-03-02T10:10:28.445Z,3.00
2019-03-02T10:12:55.904Z,2.47
2019-03-02T10:15:25.278Z,2.90
2019-03-02T10:17:54.799Z,2.93
2019-03-02T10:20:24.436Z,3.20
2019-03-02T10:22:54.241Z,3.20
2019-03-02T10:25:26.418Z,3.30
2019-03-02T10:27:57.394Z,4.07
2019-03-02T10:30:27.441Z,3.90
2019-03-02T10:32:57.402Z,3.63
2019-03-02T10:35:26.825Z,4.07
2019-03-02T10:37:56.187Z,3.37
2019-03-02T10:40:25.587Z,3.50
2019-03-02T10:42:55.005Z,3.27
2019-03-02T10:45:24.325Z,3.23
2019-03-02T10:47:54.202Z,3.30
2019-03-02T10:50:24.967Z,3.37
2019-03-02T10:52:56.094Z,3.37
2019-03-02T10:55:25.605Z,3.20
2019-03-02T10:57:55.429Z,3.20
2019-03-02T11:00:29.623Z,3.87
2019-03-02T11:02:59.794Z,3.20
2019-03-02T11:06:00.419Z,3.40
2019-03-02T11:08:52.059Z,3.13
2019-03-02T11:11:39.293Z,3.50
2019-03-02T11:14:23.689Z,3.70
2019-03-02T11:17:12.096Z,3.50
2019-03-02T11:19:57.399Z,3.13
2019-03-02T11:22:44.572Z,3.70
2019-03-02T11:25:33.032Z,3.43
2019-03-02T11:28:21.401Z,4.17
2019-03-02T11:31:08.041Z,4.03
2019-03-02T11:33:55.057Z,3.77
2019-03-02T11:36:50.296Z,3.90
2019-03-02T11:39:39.196Z,3.80
2019-03-02T11:42:33.640Z,3.97
2019-03-02T11:45:28.186Z,3.77
2019-03-02T11:48:22.854Z,4.17
2019-03-02T11:51:17.454Z,4.50
2019-03-02T11:53:59.055Z,4.53
2019-03-02T11:56:46.674Z,3.90
2019-03-02T11:59:49.433Z,3.80
2019-03-02T12:02:40.659Z,4.20
2019-03-02T12:05:28.616Z,4.20
2019-03-02T12:08:13.134Z,5.00
2019-03-02T12:10:51.950Z,3.80
2019-03-02T12:13:49.220Z,3.47
2019-03-02T12:16:40.419Z,3.23
2019-03-02T12:19:30.737Z,3.80
2019-03-02T12:22:12.302Z,3.83
2019-03-02T12:25:18.569Z,3.30
2019-03-02T12:28:05.704Z,3.80
2019-03-02T12:30:51.058Z,4.30
2019-03-02T12:33:39.427Z,3.80
2019-03-02T12:36:19.487Z,4.30
2019-03-02T12:39:00.688Z,4.17
2019-03-02T12:41:52.232Z,5.10
2019-03-02T12:44:38.894Z,5.67
2019-03-02T12:47:42.302Z,5.23
2019-03-02T12:50:42.849Z,6.10
2019-03-02T12:53:28.735Z,6.30
2019-03-02T12:56:15.519Z,6.03
2019-03-02T12:59:03.879Z,7.07
2019-03-02T13:01:52.392Z,6.60
2019-03-02T13:04:41.795Z,7.33
2019-03-02T13:07:29.116Z,8.20
2019-03-02T13:10:07.416Z,7.87
2019-03-02T13:13:08.282Z,8.17
2019-03-02T13:15:48.520Z,8.23
2019-03-02T13:18:46.949Z,8.70
2019-03-02T13:21:24.552Z,9.40
2019-03-02T13:24:19.160Z,8.17
2019-03-02T13:27:01.584Z,8.53
2019-03-02T13:29:49.182Z,8.47
2019-03-02T13:32:37.824Z,9.40
2019-03-02T13:35:16.480Z,9.27
2019-03-02T13:38:13.046Z,9.30
2019-03-02T13:40:52.216Z,9.43
2019-03-02T13:43:38.084Z,9.33
2019-03-02T13:46:15.934Z,9.23
2019-03-02T13:49:03.331Z,13.83
2019-03-02T13:51:51.668Z,11.40
2019-03-02T13:54:26.620Z,9.47
2019-03-02T13:57:17.812Z,11.37
2019-03-02T14:00:07.854Z,9.83
2019-03-02T14:03:05.412Z,9.50
2019-03-02T14:05:56.486Z,10.37
2019-03-02T14:08:44.866Z,9.90
2019-03-02T14:11:48.664Z,9.67
2019-03-02T14:14:35.729Z,10.60
2019-03-02T14:17:26.842Z,10.67
2019-03-02T14:20:20.638Z,10.33
2019-03-02T14:23:06.932Z,11.03
2019-03-02T14:25:42.925Z,11.17
2019-03-02T14:28:19.124Z,12.07
2019-03-02T14:31:19.799Z,12.93
2019-03-02T14:34:07.242Z,11.20
2019-03-02T14:36:55.980Z,12.33
2019-03-02T14:39:37.848Z,11.97
2019-03-02T14:42:23.383Z,12.43
2019-03-02T14:45:01.269Z,12.87
2019-03-02T14:48:02.240Z,13.20
2019-03-02T14:50:44.377Z,13.20
2019-03-02T14:53:25.083Z,13.97
2019-03-02T14:56:06.363Z,14.10
2019-03-02T14:59:10.214Z,14.37
2019-03-02T15:02:04.051Z,13.30
2019-03-02T15:04:58.172Z,13.83
2019-03-02T15:07:58.702Z,13.57
2019-03-02T15:10:45.438Z,14.17
2019-03-02T15:13:39.960Z,13.67
2019-03-02T15:16:19.607Z,13.57
2019-03-02T15:19:14.444Z,13.57
2019-03-02T15:21:55.660Z,13.73
2019-03-02T15:24:33.421Z,15.23
2019-03-02T15:27:21.442Z,14.67
2019-03-02T15:29:59.912Z,14.20
2019-03-02T15:32:53.350Z,14.67
2019-03-02T15:35:43.108Z,14.70
2019-03-02T15:38:41.352Z,14.83
2019-03-02T15:41:28.634Z,16.37
2019-03-02T15:44:19.820Z,15.00
2019-03-02T15:47:13.755Z,15.20
2019-03-02T15:49:48.104Z,15.80
2019-03-02T15:52:35.628Z,16.07
2019-03-02T15:55:27.278Z,15.97
2019-03-02T15:58:14.787Z,16.43
2019-03-02T16:00:53.072Z,16.37
2019-03-02T16:03:47.428Z,16.53
2019-03-02T16:06:45.172Z,15.63
2019-03-02T16:09:49.057Z,16.70
2019-03-02T16:12:40.946Z,16.93
2019-03-02T16:15:33.304Z,17.20
2019-03-02T16:18:12.905Z,16.77
2019-03-02T16:21:09.554Z,18.20
2019-03-02T16:24:04.286Z,18.20
2019-03-02T16:26:39.976Z,18.07
2019-03-02T16:29:20.480Z,18.80
2019-03-02T16:32:21.326Z,18.50
2019-03-02T16:35:08.300Z,19.03
2019-03-02T16:38:05.523Z,18.73
2019-03-02T16:40:58.197Z,18.70
2019-03-02T16:43:43.517Z,19.80
2019-03-02T16:46:40.736Z,19.23
2019-03-02T16:49:36.969Z,19.80
2019-03-02T16:52:16.010Z,19.87
2019-03-02T16:55:06.136Z,20.80
2019-03-02T16:57:49.194Z,20.77
2019-03-02T17:00:41.893Z,20.97
2019-03-02T17:03:18.494Z,20.93
2019-03-02T17:06:00.059Z,19.53
2019-03-02T17:08:47.399Z,21.93
2019-03-02T17:11:35.437Z,20.63
2019-03-02T17:14:23.787Z,21.77
2019-03-02T17:17:11.879Z,20.93
2019-03-02T17:20:07.349Z,20.80
2019-03-02T17:22:43.808Z,22.03
2019-03-02T17:25:30.927Z,23.23
2019-03-02T17:28:18.733Z,20.93
2019-03-02T17:31:07.095Z,21.80
2019-03-02T17:34:09.790Z,20.87
2019-03-02T17:36:56.332Z,20.33
2019-03-02T17:39:38.997Z,21.13
2019-03-02T17:42:33.914Z,22.00
2019-03-02T17:45:28.070Z,20.90
2019-03-02T17:48:19.416Z,22.40
2019-03-02T17:50:59.500Z,21.53
2019-03-02T17:53:59.839Z,22.60
2019-03-02T17:56:50.640Z,21.60
2019-03-02T17:59:39.753Z,22.23
2019-03-02T18:02:31.687Z,25.27
2019-03-02T18:05:39.603Z,22.00
2019-03-02T18:08:24.858Z,22.77
2019-03-02T18:11:13.365Z,23.07
2019-03-02T18:14:01.984Z,22.70
2019-03-02T18:16:48.896Z,24.97
2019-03-02T18:19:18.301Z,22.97
2019-03-02T18:21:47.607Z,22.87
2019-03-02T18:24:17.161Z,24.00
2019-03-02T18:26:49.295Z,23.80
2019-03-02T18:29:18.669Z,23.03
2019-03-02T18:31:48.109Z,24.43
2019-03-02T18:34:20.013Z,23.90
2019-03-02T18:36:53.189Z,24.03
2019-03-02T18:39:21.894Z,25.60
2019-03-02T18:41:53.901Z,24.33
2019-03-02T18:44:24.001Z,25.10
2019-03-02T18:46:54.147Z,24.00
2019-03-02T18:49:38.683Z,24.17
2019-03-02T18:52:33.551Z,25.40
2019-03-02T18:55:03.364Z,25.60
2019-03-02T18:57:34.879Z,25.50
2019-03-02T19:00:04.538Z,25.13
2019-03-02T19:02:33.956Z,24.07
2019-03-02T19:05:03.354Z,25.13
2019-03-02T19:07:35.872Z,24.97
2019-03-02T19:10:07.697Z,24.80
2019-03-02T19:12:35.229Z,25.40
2019-03-02T19:15:05.037Z,25.03
2019-03-02T19:17:44.027Z,24.90
2019-03-02T19:20:13.465Z,25.27
2019-03-02T19:22:42.861Z,25.57
2019-03-02T19:25:13.271Z,25.53
2019-03-02T19:27:42.664Z,24.10
2019-03-02T19:30:13.375Z,26.00
2019-03-02T19:32:42.702Z,25.13
2019-03-02T19:35:12.241Z,24.37
2019-03-02T19:37:41.939Z,23.80
2019-03-02T19:40:19.618Z,24.70
2019-03-02T19:42:49.213Z,26.13
2019-03-02T19:45:18.914Z,26.17
2019-03-02T19:47:48.373Z,24.73
2019-03-02T19:50:19.312Z,25.63
2019-03-02T19:52:48.862Z,25.47
2019-03-02T19:55:18.574Z,23.80
2019-03-02T19:57:47.967Z,24.37
2019-03-02T20:00:23.065Z,23.43
2019-03-02T20:02:52.469Z,24.67
2019-03-02T20:05:21.927Z,24.37
2019-03-02T20:07:51.450Z,23.50
2019-03-02T20:10:21.014Z,24.10
2019-03-02T20:12:50.425Z,23.80
2019-03-02T20:15:20.404Z,22.93
2019-03-02T20:17:49.853Z,23.03
2019-03-02T20:20:19.571Z,21.67
2019-03-02T20:22:48.914Z,20.80
2019-03-02T20:25:18.554Z,22.13
2019-03-02T20:27:48.210Z,19.97
2019-03-02T20:30:18.904Z,19.57
2019-03-02T20:32:48.502Z,18.93
2019-03-02T20:35:19.847Z,18.57
2019-03-02T20:37:49.791Z,19.73
2019-03-02T20:40:20.501Z,20.30
2019-03-02T20:42:50.035Z,19.10
2019-03-02T20:45:19.887Z,19.43
2019-03-02T20:47:49.289Z,18.60
2019-03-02T20:50:18.682Z,19.23
2019-03-02T20:52:48.303Z,19.17
2019-03-02T20:55:18.058Z,18.80
2019-03-02T20:57:49.999Z,18.87
2019-03-02T21:00:22.908Z,18.67
2019-03-02T21:02:52.798Z,19.67
2019-03-02T21:05:22.353Z,19.33
2019-03-02T21:07:52.175Z,19.77
2019-03-02T21:10:22.679Z,19.57
2019-03-02T21:12:52.057Z,18.73
2019-03-02T21:15:26.704Z,19.20
2019-03-02T21:17:56.114Z,18.23
2019-03-02T21:20:25.519Z,18.87
2019-03-02T21:22:55.274Z,17.90
2019-03-02T21:25:24.694Z,19.20
2019-03-02T21:27:56.812Z,16.90
2019-03-02T21:30:26.236Z,18.40
2019-03-02T21:32:55.670Z,17.53
2019-03-02T21:35:25.012Z,15.83
2019-03-02T21:37:54.486Z,15.43
2019-03-02T21:40:24.480Z,15.10
2019-03-02T21:42:53.966Z,13.80
2019-03-02T21:45:24.176Z,14.70
2019-03-02T21:47:53.898Z,15.43
2019-03-02T21:50:25.396Z,14.07
2019-03-02T21:52:54.847Z,14.73
2019-03-02T21:55:24.256Z,13.67
2019-03-02T21:57:53.615Z,13.97
2019-03-02T22:00:24.975Z,14.53
2019-03-02T22:02:54.596Z,14.97
2019-03-02T22:05:24.090Z,14.77
2019-03-02T22:07:53.400Z,14.97
2019-03-02T22:10:28.945Z,15.63
2019-03-02T22:12:58.361Z,15.60
2019-03-02T22:15:28.316Z,15.20
2019-03-02T22:17:58.041Z,16.33
2019-03-02T22:20:27.460Z,15.63
2019-03-02T22:22:56.789Z,16.20
2019-03-02T22:25:26.732Z,15.83
2019-03-02T22:27:56.282Z,15.63
2019-03-02T22:30:25.800Z,16.10
2019-03-02T22:32:55.202Z,16.90
2019-03-02T22:35:24.514Z,16.60
2019-03-02T22:37:54.269Z,17.43
2019-03-02T22:40:23.620Z,16.20
2019-03-02T22:42:53.172Z,16.83
2019-03-02T22:45:22.538Z,17.07
2019-03-02T22:47:51.936Z,16.60
2019-03-02T22:50:22.582Z,17.00
2019-03-02T22:52:52.250Z,17.67
2019-03-02T22:55:21.685Z,16.73
2019-03-02T22:57:51.416Z,17.10
2019-03-02T23:01:05.800Z,17.27
2019-03-02T23:03:33.732Z,17.53
2019-03-02T23:06:03.073Z,16.87
2019-03-02T23:08:32.822Z,16.77
2019-03-02T23:11:02.228Z,16.83
2019-03-02T23:13:31.685Z,16.10
2019-03-02T23:16:01.448Z,16.50
2019-03-02T23:18:30.888Z,16.30
2019-03-02T23:21:00.282Z,16.27
2019-03-02T23:23:29.731Z,16.07
2019-03-02T23:25:59.134Z,14.13
2019-03-02T23:28:28.898Z,14.60
2019-03-02T23:30:58.306Z,13.60
2019-03-02T23:33:27.716Z,12.60
2019-03-02T23:35:57.498Z,12.27
2019-03-02T23:38:27.259Z,13.23
2019-03-02T23:40:56.856Z,11.57
2019-03-02T23:43:26.299Z,11.77
2019-03-02T23:45:56.003Z,11.67
2019-03-02T23:48:25.509Z,11.50
2019-03-02T23:50:55.032Z,11.40
2019-03-02T23:53:24.928Z,10.73
2019-03-02T23:55:54.400Z,11.73
2019-03-02T23:58:23.792Z,11.47
